sensor_id;sensor_type;location;lat;lon;timestamp;pressure;altitude;pressure_sealevel;temperature;humidity
70976;BME280;58635;51.198;6.010;2023-04-07T00:02:02;101250.28;;;12.42;65.61
70976;BME280;58635;51.198;6.010;2023-04-07T00:04:27;101251.06;;;12.43;65.52
70976;BME280;58635;51.198;6.010;2023-04-07T00:06:52;101255.47;;;12.42;65.71
70976;BME280;58635;51.198;6.010;2023-04-07T00:09:18;101256.25;;;12.43;65.63
70976;BME280;58635;51.198;6.010;2023-04-07T00:11:43;101268.44;;;12.42;65.43
70976;BME280;58635;51.198;6.010;2023-04-07T00:14:08;101258.06;;;12.42;65.61
70976;BME280;58635;51.198;6.010;2023-04-07T00:16:34;101261.44;;;12.43;65.51
70976;BME280;58635;51.198;6.010;2023-04-07T00:19:00;101250.28;;;12.42;65.63
70976;BME280;58635;51.198;6.010;2023-04-07T00:21:25;101256.25;;;12.43;65.57
70976;BME280;58635;51.198;6.010;2023-04-07T00:23:51;101270.06;;;12.43;65.46
70976;BME280;58635;51.198;6.010;2023-04-07T00:26:16;101259.69;;;12.43;65.18
70976;BME280;58635;51.198;6.010;2023-04-07T00:28:42;101268.28;;;12.44;65.23
70976;BME280;58635;51.198;6.010;2023-04-07T00:31:07;101265.47;;;12.45;65.32
70976;BME280;58635;51.198;6.010;2023-04-07T00:33:32;101262.88;;;12.45;65.36
70976;BME280;58635;51.198;6.010;2023-04-07T00:35:58;101258.50;;;12.46;65.43
70976;BME280;58635;51.198;6.010;2023-04-07T00:38:23;101257.50;;;12.47;65.53
70976;BME280;58635;51.198;6.010;2023-04-07T00:40:49;101260.09;;;12.47;65.28
70976;BME280;58635;51.198;6.010;2023-04-07T00:43:14;101258.50;;;12.46;65.35
70976;BME280;58635;51.198;6.010;2023-04-07T00:45:40;101261.09;;;12.46;65.38
70976;BME280;58635;51.198;6.010;2023-04-07T00:48:06;101260.28;;;12.45;65.22
70976;BME280;58635;51.198;6.010;2023-04-07T00:50:31;101261.09;;;12.46;65.45
70976;BME280;58635;51.198;6.010;2023-04-07T00:52:57;101258.50;;;12.46;65.45
70976;BME280;58635;51.198;6.010;2023-04-07T00:55:22;101264.69;;;12.45;65.37
70976;BME280;58635;51.198;6.010;2023-04-07T00:57:48;101259.50;;;12.45;65.32
70976;BME280;58635;51.198;6.010;2023-04-07T01:00:13;101259.28;;;12.46;65.40
70976;BME280;58635;51.198;6.010;2023-04-07T01:02:48;101260.28;;;12.45;65.48
70976;BME280;58635;51.198;6.010;2023-04-07T01:05:22;101254.31;;;12.45;65.25
70976;BME280;58635;51.198;6.010;2023-04-07T01:10:51;101258.69;;;12.44;65.31
70976;BME280;58635;51.198;6.010;2023-04-07T01:15:48;101268.28;;;12.44;65.33
70976;BME280;58635;51.198;6.010;2023-04-07T01:18:20;101270.88;;;12.44;65.41
70976;BME280;58635;51.198;6.010;2023-04-07T01:20:49;101261.44;;;12.43;65.22
70976;BME280;58635;51.198;6.010;2023-04-07T01:23:22;101266.63;;;12.43;65.38
70976;BME280;58635;51.198;6.010;2023-04-07T01:26:03;101258.25;;;12.34;65.31
70976;BME280;58635;51.198;6.010;2023-04-07T01:31:11;101267.81;;;12.34;65.08
70976;BME280;58635;51.198;6.010;2023-04-07T01:33:42;101273.00;;;12.34;65.23
70976;BME280;58635;51.198;6.010;2023-04-07T01:36:09;101266.81;;;12.35;65.10
70976;BME280;58635;51.198;6.010;2023-04-07T01:38:36;101280.59;;;12.35;65.10
70976;BME280;58635;51.198;6.010;2023-04-07T01:41:03;101276.41;;;12.34;65.23
70976;BME280;58635;51.198;6.010;2023-04-07T01:43:30;101278.81;;;12.36;65.25
70976;BME280;58635;51.198;6.010;2023-04-07T01:45:56;101279.78;;;12.35;65.10
70976;BME280;58635;51.198;6.010;2023-04-07T01:48:22;101277.00;;;12.36;65.14
70976;BME280;58635;51.198;6.010;2023-04-07T01:50:49;101276.22;;;12.36;65.09
70976;BME280;58635;51.198;6.010;2023-04-07T01:53:15;101277.81;;;12.37;65.23
70976;BME280;58635;51.198;6.010;2023-04-07T01:55:42;101279.59;;;12.36;65.01
70976;BME280;58635;51.198;6.010;2023-04-07T01:58:08;101283.59;;;12.39;65.10
70976;BME280;58635;51.198;6.010;2023-04-07T02:00:33;101280.19;;;12.38;65.16
70976;BME280;58635;51.198;6.010;2023-04-07T02:03:12;101277.59;;;12.38;65.17
70976;BME280;58635;51.198;6.010;2023-04-07T02:05:46;101276.81;;;12.38;64.87
70976;BME280;58635;51.198;6.010;2023-04-07T02:08:15;101277.59;;;12.38;64.78
70976;BME280;58635;51.198;6.010;2023-04-07T02:10:42;101278.59;;;12.37;64.99
70976;BME280;58635;51.198;6.010;2023-04-07T02:13:14;101281.19;;;12.37;65.10
70976;BME280;58635;51.198;6.010;2023-04-07T02:15:41;101283.38;;;12.34;64.85
70976;BME280;58635;51.198;6.010;2023-04-07T02:18:08;101282.78;;;12.32;65.14
70976;BME280;58635;51.198;6.010;2023-04-07T02:20:35;101281.16;;;12.30;65.04
70976;BME280;58635;51.198;6.010;2023-04-07T02:23:01;101278.75;;;12.29;64.91
70976;BME280;58635;51.198;6.010;2023-04-07T02:25:29;101277.94;;;12.28;64.93
70976;BME280;58635;51.198;6.010;2023-04-07T02:27:57;101281.34;;;12.29;64.86
70976;BME280;58635;51.198;6.010;2023-04-07T02:30:24;101283.53;;;12.25;64.65
70976;BME280;58635;51.198;6.010;2023-04-07T02:32:49;101283.72;;;12.24;64.71
70976;BME280;58635;51.198;6.010;2023-04-07T02:35:15;101285.53;;;12.23;64.70
70976;BME280;58635;51.198;6.010;2023-04-07T02:37:42;101286.53;;;12.22;64.76
70976;BME280;58635;51.198;6.010;2023-04-07T02:40:08;101290.91;;;12.22;64.67
70976;BME280;58635;51.198;6.010;2023-04-07T02:42:34;101289.09;;;12.22;64.90
70976;BME280;58635;51.198;6.010;2023-04-07T02:45:01;101283.94;;;12.22;64.68
70976;BME280;58635;51.198;6.010;2023-04-07T02:47:26;101287.50;;;12.21;64.59
70976;BME280;58635;51.198;6.010;2023-04-07T02:49:52;101289.31;;;12.21;64.64
70976;BME280;58635;51.198;6.010;2023-04-07T02:52:17;101291.09;;;12.20;64.50
70976;BME280;58635;51.198;6.010;2023-04-07T02:54:42;101289.47;;;12.19;64.55
70976;BME280;58635;51.198;6.010;2023-04-07T02:57:08;101282.69;;;12.18;64.32
70976;BME280;58635;51.198;6.010;2023-04-07T02:59:33;101286.47;;;12.16;64.10
70976;BME280;58635;51.198;6.010;2023-04-07T03:01:59;101288.47;;;12.14;64.23
70976;BME280;58635;51.198;6.010;2023-04-07T03:04:24;101292.84;;;12.13;64.14
70976;BME280;58635;51.198;6.010;2023-04-07T03:06:49;101289.25;;;12.14;64.48
70976;BME280;58635;51.198;6.010;2023-04-07T03:09:15;101291.84;;;12.14;64.29
70976;BME280;58635;51.198;6.010;2023-04-07T03:11:40;101291.84;;;12.14;64.09
70976;BME280;58635;51.198;6.010;2023-04-07T03:14:06;101293.44;;;12.15;64.24
70976;BME280;58635;51.198;6.010;2023-04-07T03:16:32;101291.66;;;12.16;64.39
70976;BME280;58635;51.198;6.010;2023-04-07T03:18:57;101293.44;;;12.15;64.34
70976;BME280;58635;51.198;6.010;2023-04-07T03:21:23;101296.84;;;12.16;64.34
70976;BME280;58635;51.198;6.010;2023-04-07T03:23:48;101294.25;;;12.16;64.30
70976;BME280;58635;51.198;6.010;2023-04-07T03:26:13;101291.66;;;12.16;64.15
70976;BME280;58635;51.198;6.010;2023-04-07T03:28:39;101285.47;;;12.17;64.19
70976;BME280;58635;51.198;6.010;2023-04-07T03:31:04;101285.47;;;12.17;64.24
70976;BME280;58635;51.198;6.010;2023-04-07T03:33:30;101295.84;;;12.17;64.18
70976;BME280;58635;51.198;6.010;2023-04-07T03:35:55;101294.25;;;12.16;64.26
70976;BME280;58635;51.198;6.010;2023-04-07T03:38:20;101300.44;;;12.15;64.13
70976;BME280;58635;51.198;6.010;2023-04-07T03:40:46;101302.22;;;12.14;64.21
70976;BME280;58635;51.198;6.010;2023-04-07T03:43:11;101298.84;;;12.14;64.21
70976;BME280;58635;51.198;6.010;2023-04-07T03:45:40;101302.63;;;12.11;64.09
70976;BME280;58635;51.198;6.010;2023-04-07T03:48:05;101300.22;;;12.10;64.27
70976;BME280;58635;51.198;6.010;2023-04-07T03:50:34;101297.63;;;12.10;64.22
70976;BME280;58635;51.198;6.010;2023-04-07T03:53:00;101296.19;;;12.07;64.39
70976;BME280;58635;51.198;6.010;2023-04-07T03:55:26;101298.97;;;12.06;64.30
70976;BME280;58635;51.198;6.010;2023-04-07T03:57:51;101300.97;;;12.04;64.49
70976;BME280;58635;51.198;6.010;2023-04-07T04:00:17;101310.34;;;12.05;64.37
70976;BME280;58635;51.198;6.010;2023-04-07T04:02:42;101306.34;;;12.02;64.24
70976;BME280;58635;51.198;6.010;2023-04-07T04:05:08;101313.13;;;12.03;64.41
70976;BME280;58635;51.198;6.010;2023-04-07T04:07:33;101314.13;;;12.02;64.62
70976;BME280;58635;51.198;6.010;2023-04-07T04:10:00;101317.31;;;12.04;64.58
70976;BME280;58635;51.198;6.010;2023-04-07T04:12:25;101310.34;;;12.05;64.53
70976;BME280;58635;51.198;6.010;2023-04-07T04:14:51;101313.13;;;12.03;64.47
70976;BME280;58635;51.198;6.010;2023-04-07T04:17:17;101318.50;;;12.02;64.54
70976;BME280;58635;51.198;6.010;2023-04-07T04:19:42;101318.50;;;12.02;64.47
70976;BME280;58635;51.198;6.010;2023-04-07T04:22:08;101317.69;;;12.01;64.24
70976;BME280;58635;51.198;6.010;2023-04-07T04:24:33;101321.28;;;12.00;64.25
70976;BME280;58635;51.198;6.010;2023-04-07T04:26:59;101325.66;;;11.99;64.20
70976;BME280;58635;51.198;6.010;2023-04-07T04:29:26;101326.66;;;11.98;64.39
70976;BME280;58635;51.198;6.010;2023-04-07T04:31:51;101326.06;;;11.96;64.13
70976;BME280;58635;51.198;6.010;2023-04-07T04:34:17;101324.44;;;11.95;64.12
70976;BME280;58635;51.198;6.010;2023-04-07T04:36:42;101330.59;;;11.94;64.24
70976;BME280;58635;51.198;6.010;2023-04-07T04:39:08;101334.19;;;11.93;64.09
70976;BME280;58635;51.198;6.010;2023-04-07T04:41:33;101332.59;;;11.92;64.18
70976;BME280;58635;51.198;6.010;2023-04-07T04:43:59;101334.38;;;11.92;64.08
70976;BME280;58635;51.198;6.010;2023-04-07T04:46:24;101337.16;;;11.90;64.04
70976;BME280;58635;51.198;6.010;2023-04-07T04:48:50;101331.97;;;11.90;63.60
70976;BME280;58635;51.198;6.010;2023-04-07T04:51:16;101342.34;;;11.90;64.12
70976;BME280;58635;51.198;6.010;2023-04-07T04:53:42;101342.16;;;11.92;63.86
70976;BME280;58635;51.198;6.010;2023-04-07T04:56:07;101350.53;;;11.94;63.88
70976;BME280;58635;51.198;6.010;2023-04-07T04:58:34;101355.53;;;11.95;63.95
70976;BME280;58635;51.198;6.010;2023-04-07T05:00:59;101357.16;;;11.96;63.96
70976;BME280;58635;51.198;6.010;2023-04-07T05:03:26;101359.56;;;11.98;63.84
70976;BME280;58635;51.198;6.010;2023-04-07T05:05:52;101357.78;;;11.98;63.91
70976;BME280;58635;51.198;6.010;2023-04-07T05:08:17;101359.38;;;11.99;63.93
70976;BME280;58635;51.198;6.010;2023-04-07T05:10:43;101360.16;;;12.00;63.95
70976;BME280;58635;51.198;6.010;2023-04-07T05:13:08;101365.53;;;11.98;63.78
70976;BME280;58635;51.198;6.010;2023-04-07T05:15:34;101369.75;;;11.99;63.74
70976;BME280;58635;51.198;6.010;2023-04-07T05:17:59;101358.75;;;11.97;64.02
70976;BME280;58635;51.198;6.010;2023-04-07T05:20:25;101362.34;;;11.96;63.52
70976;BME280;58635;51.198;6.010;2023-04-07T05:22:50;101363.94;;;11.97;63.55
70976;BME280;58635;51.198;6.010;2023-04-07T05:25:15;101373.53;;;11.97;63.62
70976;BME280;58635;51.198;6.010;2023-04-07T05:27:41;101363.16;;;11.97;63.51
70976;BME280;58635;51.198;6.010;2023-04-07T05:30:07;101362.97;;;11.98;63.46
70976;BME280;58635;51.198;6.010;2023-04-07T05:32:32;101369.75;;;11.99;63.43
70976;BME280;58635;51.198;6.010;2023-04-07T05:34:58;101367.75;;;12.02;63.67
70976;BME280;58635;51.198;6.010;2023-04-07T05:37:23;101367.75;;;12.02;63.63
70976;BME280;58635;51.198;6.010;2023-04-07T05:39:49;101367.16;;;11.99;63.63
70976;BME280;58635;51.198;6.010;2023-04-07T05:42:15;101368.94;;;11.99;63.55
70976;BME280;58635;51.198;6.010;2023-04-07T05:44:40;101369.13;;;11.97;63.59
70976;BME280;58635;51.198;6.010;2023-04-07T05:47:06;101372.53;;;11.98;63.50
70976;BME280;58635;51.198;6.010;2023-04-07T05:49:34;101375.91;;;11.98;63.45
70976;BME280;58635;51.198;6.010;2023-04-07T05:51:59;101380.13;;;11.99;63.46
70976;BME280;58635;51.198;6.010;2023-04-07T05:54:25;101375.72;;;12.00;63.38
70976;BME280;58635;51.198;6.010;2023-04-07T05:56:50;101377.53;;;11.99;63.48
70976;BME280;58635;51.198;6.010;2023-04-07T05:59:16;101380.72;;;12.02;63.55
70976;BME280;58635;51.198;6.010;2023-04-07T06:01:41;101383.13;;;12.03;63.24
70976;BME280;58635;51.198;6.010;2023-04-07T06:04:06;101386.13;;;12.07;63.45
70976;BME280;58635;51.198;6.010;2023-04-07T06:06:32;101388.38;;;12.10;63.07
70976;BME280;58635;51.198;6.010;2023-04-07T06:08:57;101390.78;;;12.11;63.30
70976;BME280;58635;51.198;6.010;2023-04-07T06:11:24;101385.19;;;12.14;63.23
70976;BME280;58635;51.198;6.010;2023-04-07T06:13:49;101393.59;;;12.16;63.36
70976;BME280;58635;51.198;6.010;2023-04-07T06:16:14;101397.59;;;12.19;63.05
70976;BME280;58635;51.198;6.010;2023-04-07T06:18:40;101395.63;;;12.21;63.26
70976;BME280;58635;51.198;6.010;2023-04-07T06:21:06;101402.22;;;12.23;62.98
70976;BME280;58635;51.198;6.010;2023-04-07T06:23:31;101401.03;;;12.26;63.14
70976;BME280;58635;51.198;6.010;2023-04-07T06:25:56;101400.84;;;12.27;63.10
70976;BME280;58635;51.198;6.010;2023-04-07T06:28:22;101396.47;;;12.28;63.08
70976;BME280;58635;51.198;6.010;2023-04-07T06:30:47;101403.06;;;12.30;63.12
70976;BME280;58635;51.198;6.010;2023-04-07T06:33:13;101406.91;;;12.35;63.00
70976;BME280;58635;51.198;6.010;2023-04-07T06:35:39;101409.91;;;12.38;63.14
70976;BME280;58635;51.198;6.010;2023-04-07T06:38:04;101417.50;;;12.40;62.86
70976;BME280;58635;51.198;6.010;2023-04-07T06:40:29;101412.75;;;12.43;62.81
70976;BME280;58635;51.198;6.010;2023-04-07T06:42:55;101415.75;;;12.47;62.81
70976;BME280;58635;51.198;6.010;2023-04-07T06:45:20;101417.34;;;12.48;62.90
70976;BME280;58635;51.198;6.010;2023-04-07T06:47:46;101426.53;;;12.50;62.71
70976;BME280;58635;51.198;6.010;2023-04-07T06:50:12;101430.56;;;12.53;62.88
70976;BME280;58635;51.198;6.010;2023-04-07T06:52:37;101435.53;;;12.54;62.85
70976;BME280;58635;51.198;6.010;2023-04-07T06:55:03;101437.97;;;12.56;62.81
70976;BME280;58635;51.198;6.010;2023-04-07T06:57:28;101432.78;;;12.56;62.73
70976;BME280;58635;51.198;6.010;2023-04-07T06:59:54;101444.78;;;12.57;62.89
70976;BME280;58635;51.198;6.010;2023-04-07T07:02:19;101442.19;;;12.57;62.70
70976;BME280;58635;51.198;6.010;2023-04-07T07:04:45;101448.16;;;12.57;62.31
70976;BME280;58635;51.198;6.010;2023-04-07T07:07:10;101454.16;;;12.58;62.38
70976;BME280;58635;51.198;6.010;2023-04-07T07:09:35;101452.34;;;12.58;62.55
70976;BME280;58635;51.198;6.010;2023-04-07T07:12:01;101453.34;;;12.57;62.46
70976;BME280;58635;51.198;6.010;2023-04-07T07:14:26;101449.34;;;12.55;62.58
70976;BME280;58635;51.198;6.010;2023-04-07T07:16:52;101449.50;;;12.53;62.69
70976;BME280;58635;51.198;6.010;2023-04-07T07:19:17;101449.50;;;12.53;62.40
70976;BME280;58635;51.198;6.010;2023-04-07T07:21:43;101452.91;;;12.54;62.43
70976;BME280;58635;51.198;6.010;2023-04-07T07:24:08;101456.31;;;12.54;62.35
70976;BME280;58635;51.198;6.010;2023-04-07T07:26:34;101453.34;;;12.57;62.35
70976;BME280;58635;51.198;6.010;2023-04-07T07:28:59;101455.56;;;12.61;62.46
70976;BME280;58635;51.198;6.010;2023-04-07T07:31:25;101459.75;;;12.62;62.33
70976;BME280;58635;51.198;6.010;2023-04-07T07:33:50;101460.16;;;12.65;62.29
70976;BME280;58635;51.198;6.010;2023-04-07T07:36:16;101458.03;;;12.69;62.27
70976;BME280;58635;51.198;6.010;2023-04-07T07:38:42;101464.41;;;12.73;62.11
70976;BME280;58635;51.198;6.010;2023-04-07T07:41:07;101465.81;;;12.75;62.06
70976;BME280;58635;51.198;6.010;2023-04-07T07:43:32;101471.47;;;12.79;62.02
70976;BME280;58635;51.198;6.010;2023-04-07T07:45:58;101472.88;;;12.81;61.94
70976;BME280;58635;51.198;6.010;2023-04-07T07:48:23;101472.66;;;12.83;62.05
70976;BME280;58635;51.198;6.010;2023-04-07T07:50:49;101475.47;;;12.81;61.78
70976;BME280;58635;51.198;6.010;2023-04-07T07:53:16;101476.47;;;12.80;61.96
70976;BME280;58635;51.198;6.010;2023-04-07T07:55:41;101476.25;;;12.82;61.95
70976;BME280;58635;51.198;6.010;2023-04-07T07:58:07;101479.84;;;12.81;62.06
70976;BME280;58635;51.198;6.010;2023-04-07T08:00:32;101481.84;;;12.79;61.97
70976;BME280;58635;51.198;6.010;2023-04-07T08:02:57;101484.59;;;12.77;62.18
70976;BME280;58635;51.198;6.010;2023-04-07T08:05:24;101489.78;;;12.77;62.21
70976;BME280;58635;51.198;6.010;2023-04-07T08:07:52;101487.19;;;12.77;62.43
70976;BME280;58635;51.198;6.010;2023-04-07T08:10:17;101487.03;;;12.79;62.31
70976;BME280;58635;51.198;6.010;2023-04-07T08:12:44;101503.03;;;12.82;62.54
70976;BME280;58635;51.198;6.010;2023-04-07T08:15:10;101497.84;;;12.89;62.26
70976;BME280;58635;51.198;6.010;2023-04-07T08:17:35;101495.31;;;12.96;62.34
70976;BME280;58635;51.198;6.010;2023-04-07T08:20:01;101498.56;;;13.04;62.30
70976;BME280;58635;51.198;6.010;2023-04-07T08:22:28;101499.78;;;13.08;62.18
70976;BME280;58635;51.198;6.010;2023-04-07T08:24:53;101499.97;;;13.13;62.06
70976;BME280;58635;51.198;6.010;2023-04-07T08:27:18;101498.03;;;13.15;61.97
70976;BME280;58635;51.198;6.010;2023-04-07T08:29:47;101500.25;;;13.19;61.74
70976;BME280;58635;51.198;6.010;2023-04-07T08:32:13;101504.25;;;13.21;61.73
70976;BME280;58635;51.198;6.010;2023-04-07T08:34:38;101507.66;;;13.22;61.71
70976;BME280;58635;51.198;6.010;2023-04-07T08:37:04;101518.03;;;13.22;61.74
70976;BME280;58635;51.198;6.010;2023-04-07T08:39:29;101518.03;;;13.22;61.66
70976;BME280;58635;51.198;6.010;2023-04-07T08:41:55;101514.47;;;13.23;61.72
70976;BME280;58635;51.198;6.010;2023-04-07T08:44:21;101516.06;;;13.24;61.54
70976;BME280;58635;51.198;6.010;2023-04-07T08:46:49;101519.84;;;13.21;61.57
70976;BME280;58635;51.198;6.010;2023-04-07T08:49:16;101520.84;;;13.20;61.63
70976;BME280;58635;51.198;6.010;2023-04-07T08:51:45;101522.25;;;13.23;61.65
70976;BME280;58635;51.198;6.010;2023-04-07T08:54:13;101527.06;;;13.26;61.46
70976;BME280;58635;51.198;6.010;2023-04-07T08:56:40;101528.28;;;13.30;61.56
70976;BME280;58635;51.198;6.010;2023-04-07T08:59:08;101528.09;;;13.31;61.38
70976;BME280;58635;51.198;6.010;2023-04-07T09:01:34;101534.09;;;13.32;61.68
70976;BME280;58635;51.198;6.010;2023-04-07T09:04:02;101540.88;;;13.33;61.37
70976;BME280;58635;51.198;6.010;2023-04-07T09:06:29;101538.09;;;13.34;61.40
70976;BME280;58635;51.198;6.010;2023-04-07T09:08:59;101540.13;;;13.39;61.37
70976;BME280;58635;51.198;6.010;2023-04-07T09:11:26;101541.13;;;13.44;61.02
70976;BME280;58635;51.198;6.010;2023-04-07T09:13:52;101543.16;;;13.49;61.01
70976;BME280;58635;51.198;6.010;2023-04-07T09:16:18;101548.78;;;13.53;60.81
70976;BME280;58635;51.198;6.010;2023-04-07T09:18:44;101548.78;;;13.53;60.76
70976;BME280;58635;51.198;6.010;2023-04-07T09:21:10;101551.56;;;13.51;60.61
70976;BME280;58635;51.198;6.010;2023-04-07T09:23:40;101544.78;;;13.50;60.93
70976;BME280;58635;51.198;6.010;2023-04-07T09:26:26;101547.38;;;13.50;60.75
70976;BME280;58635;51.198;6.010;2023-04-07T09:29:00;101549.16;;;13.50;60.62
70976;BME280;58635;51.198;6.010;2023-04-07T09:31:47;101544.78;;;13.50;60.51
70976;BME280;58635;51.198;6.010;2023-04-07T09:34:31;101547.38;;;13.50;60.61
70976;BME280;58635;51.198;6.010;2023-04-07T09:36:57;101551.75;;;13.50;60.84
70976;BME280;58635;51.198;6.010;2023-04-07T09:39:23;101549.97;;;13.50;60.58
70976;BME280;58635;51.198;6.010;2023-04-07T09:41:49;101543.38;;;13.54;60.54
70976;BME280;58635;51.198;6.010;2023-04-07T09:44:16;101542.78;;;13.59;60.42
70976;BME280;58635;51.198;6.010;2023-04-07T09:46:56;101540.22;;;13.65;60.38
70976;BME280;58635;51.198;6.010;2023-04-07T09:49:22;101545.63;;;13.70;60.23
70976;BME280;58635;51.198;6.010;2023-04-07T09:52:03;101544.66;;;13.78;60.27
70976;BME280;58635;51.198;6.010;2023-04-07T09:54:33;101539.66;;;13.83;60.02
70976;BME280;58635;51.198;6.010;2023-04-07T09:56:59;101546.09;;;13.87;59.74
70976;BME280;58635;51.198;6.010;2023-04-07T09:59:27;101546.31;;;13.92;59.57
70976;BME280;58635;51.198;6.010;2023-04-07T10:01:53;101550.09;;;13.96;59.61
70976;BME280;58635;51.198;6.010;2023-04-07T10:04:19;101546.13;;;14.00;59.56
70976;BME280;58635;51.198;6.010;2023-04-07T10:06:46;101554.72;;;14.08;59.39
70976;BME280;58635;51.198;6.010;2023-04-07T10:09:12;101555.75;;;14.13;59.27
70976;BME280;58635;51.198;6.010;2023-04-07T10:11:40;101552.34;;;14.19;59.18
70976;BME280;58635;51.198;6.010;2023-04-07T10:14:08;101543.75;;;14.25;58.87
70976;BME280;58635;51.198;6.010;2023-04-07T10:16:34;101544.97;;;14.29;58.76
70976;BME280;58635;51.198;6.010;2023-04-07T10:19:00;101547.19;;;14.32;58.34
70976;BME280;58635;51.198;6.010;2023-04-07T10:21:26;101546.19;;;14.33;58.34
70976;BME280;58635;51.198;6.010;2023-04-07T10:23:59;101554.59;;;14.36;58.22
70976;BME280;58635;51.198;6.010;2023-04-07T10:26:30;101554.19;;;14.39;58.11
70976;BME280;58635;51.198;6.010;2023-04-07T10:29:09;101551.97;;;14.42;57.93
70976;BME280;58635;51.198;6.010;2023-04-07T10:31:36;101555.63;;;14.48;57.82
70976;BME280;58635;51.198;6.010;2023-04-07T10:34:03;101561.63;;;14.55;57.68
70976;BME280;58635;51.198;6.010;2023-04-07T10:36:30;101556.03;;;14.58;57.56
70976;BME280;58635;51.198;6.010;2023-04-07T10:41:35;101556.81;;;14.65;57.16
70976;BME280;58635;51.198;6.010;2023-04-07T10:44:02;101567.22;;;14.65;56.92
70976;BME280;58635;51.198;6.010;2023-04-07T10:47:09;101567.44;;;14.63;57.11
70976;BME280;58635;51.198;6.010;2023-04-07T10:49:34;101562.22;;;14.63;57.30
70976;BME280;58635;51.198;6.010;2023-04-07T10:52:20;101567.81;;;14.67;57.16
70976;BME280;58635;51.198;6.010;2023-04-07T10:54:47;101562.81;;;14.72;57.01
70976;BME280;58635;51.198;6.010;2023-04-07T10:57:13;101562.00;;;14.78;56.69
70976;BME280;58635;51.198;6.010;2023-04-07T11:02:39;101559.78;;;14.88;56.41
70976;BME280;58635;51.198;6.010;2023-04-07T11:05:05;101563.00;;;14.90;56.20
70976;BME280;58635;51.198;6.010;2023-04-07T11:07:45;101562.81;;;14.92;56.05
70976;BME280;58635;51.198;6.010;2023-04-07T11:10:11;101575.25;;;14.83;56.01
70976;BME280;58635;51.198;6.010;2023-04-07T11:12:37;101576.25;;;14.76;56.16
70976;BME280;58635;51.198;6.010;2023-04-07T11:15:19;101577.44;;;14.73;56.19
70976;BME280;58635;51.198;6.010;2023-04-07T11:17:46;101580.47;;;14.70;56.32
70976;BME280;58635;51.198;6.010;2023-04-07T11:20:11;101581.47;;;14.69;56.21
70976;BME280;58635;51.198;6.010;2023-04-07T11:22:37;101575.25;;;14.63;56.43
70976;BME280;58635;51.198;6.010;2023-04-07T11:25:02;101581.84;;;14.53;56.61
70976;BME280;58635;51.198;6.010;2023-04-07T11:27:28;101577.44;;;14.47;56.85
70976;BME280;58635;51.198;6.010;2023-04-07T11:29:54;101582.06;;;14.45;57.03
70976;BME280;58635;51.198;6.010;2023-04-07T11:32:23;101584.81;;;14.43;56.80
70976;BME280;58635;51.198;6.010;2023-04-07T11:34:53;101585.03;;;14.35;57.18
70976;BME280;58635;51.198;6.010;2023-04-07T11:37:25;101589.22;;;14.43;57.11
70976;BME280;58635;51.198;6.010;2023-04-07T11:39:56;101585.06;;;14.48;56.94
70976;BME280;58635;51.198;6.010;2023-04-07T11:42:32;101586.84;;;14.54;56.82
70976;BME280;58635;51.198;6.010;2023-04-07T11:44:57;101585.66;;;14.63;56.66
70976;BME280;58635;51.198;6.010;2023-04-07T11:47:35;101592.88;;;14.81;56.38
70976;BME280;58635;51.198;6.010;2023-04-07T11:50:01;101594.66;;;15.01;56.14
70976;BME280;58635;51.198;6.010;2023-04-07T11:52:27;101594.41;;;15.22;55.63
70976;BME280;58635;51.198;6.010;2023-04-07T11:54:52;101591.78;;;15.42;55.37
70976;BME280;58635;51.198;6.010;2023-04-07T11:57:28;101599.75;;;15.60;54.86
70976;BME280;58635;51.198;6.010;2023-04-07T12:00:06;101598.09;;;15.72;54.64
70976;BME280;58635;51.198;6.010;2023-04-07T12:02:32;101605.69;;;15.74;54.38
70976;BME280;58635;51.198;6.010;2023-04-07T12:04:58;101603.50;;;15.71;54.64
70976;BME280;58635;51.198;6.010;2023-04-07T12:07:23;101606.16;;;15.64;54.40
70976;BME280;58635;51.198;6.010;2023-04-07T12:09:49;101603.16;;;15.54;54.68
70976;BME280;58635;51.198;6.010;2023-04-07T12:12:24;101604.59;;;15.43;54.53
70976;BME280;58635;51.198;6.010;2023-04-07T12:14:50;101608.63;;;15.33;54.72
70976;BME280;58635;51.198;6.010;2023-04-07T12:17:24;101611.22;;;15.26;54.81
70976;BME280;58635;51.198;6.010;2023-04-07T12:19:49;101614.66;;;15.20;54.67
70976;BME280;58635;51.198;6.010;2023-04-07T12:22:15;101611.44;;;15.25;54.63
70976;BME280;58635;51.198;6.010;2023-04-07T12:24:41;101610.22;;;15.34;54.28
70976;BME280;58635;51.198;6.010;2023-04-07T12:27:06;101615.22;;;15.42;54.13
70976;BME280;58635;51.198;6.010;2023-04-07T12:29:33;101615.22;;;15.42;54.01
70976;BME280;58635;51.198;6.010;2023-04-07T12:31:59;101623.84;;;15.36;54.02
70976;BME280;58635;51.198;6.010;2023-04-07T12:34:25;101631.06;;;15.27;54.09
70976;BME280;58635;51.198;6.010;2023-04-07T12:36:51;101630.50;;;15.18;54.41
70976;BME280;58635;51.198;6.010;2023-04-07T12:39:17;101628.53;;;15.07;54.72
70976;BME280;58635;51.198;6.010;2023-04-07T12:41:43;101638.34;;;14.99;54.90
70976;BME280;58635;51.198;6.010;2023-04-07T12:44:13;101638.94;;;14.87;55.20
70976;BME280;58635;51.198;6.010;2023-04-07T12:46:38;101643.75;;;14.77;55.25
70976;BME280;58635;51.198;6.010;2023-04-07T12:49:04;101647.56;;;14.68;55.59
70976;BME280;58635;51.198;6.010;2023-04-07T12:51:30;101645.53;;;14.63;55.65
70976;BME280;58635;51.198;6.010;2023-04-07T12:53:57;101647.94;;;14.58;55.54
70976;BME280;58635;51.198;6.010;2023-04-07T12:56:25;101650.94;;;14.55;55.25
70976;BME280;58635;51.198;6.010;2023-04-07T12:58:50;101642.31;;;14.55;55.57
70976;BME280;58635;51.198;6.010;2023-04-07T13:01:17;101646.94;;;14.59;55.39
70976;BME280;58635;51.198;6.010;2023-04-07T13:03:43;101653.38;;;14.70;55.22